Terminal Aerodrome Forecast
Issued by NWS Cleveland, OH

Home | Current Version | Previous Version | Graphics & Text | Print | Product List | Glossary Off
Versions: 1 2 3 4 5 6 7 8 9 10 11 12 13 14 15 16 17 18 19 20 21 22

000
FTUS41 KCLE 281000 AAA
TAFTOL
TAF AMD
KTOL 281007Z 2810/2906 28010KT P6SM OVC035
      TEMPO 2813/2817 OVC025
     FM281900 29008KT P6SM BKN250=

USA.gov is the U.S. government's official web portal to all federal, state and local government web resources and services.